In Rescue
 
Open Full Screen Window  High Contrast Mode
Wind Gusting 00 knots
06
November 28, 2020 12:45 AM EST
Weather Information
Wind Direction
  330 °
Wind Speed
  06 kt (7 mph)
Wind Gust
  00 kt (0 mph)
Altimeter
30.09 in
Visibility
10 SM
Temperature
05° C
41° F
Dewpoint
02° C
36° F
Humidity
81%
Sky Condition
Overcast @ 2,600 ft
Broken @ 1,900 ft
Broken @ 1,500 ft
MVFR

METAR KAXV 280545Z AUTO 33006KT 10SM BKN015 BKN019 OVC026 05/02 A3009 RMK AO2

FAA Disclaimer: The data displayed is for advisory purposes only and is not to be used for flight planning or operations.